createdAt,value
2019-04-29T12:25:10.352Z,9
2019-04-29T12:26:23.993Z,8
2019-04-29T12:27:36.703Z,12
2019-04-29T12:28:26.790Z,1
2019-04-29T12:29:38.531Z,14
2019-04-29T12:30:51.466Z,9808
2019-04-29T12:32:04.340Z,6908
2019-04-29T12:33:17.276Z,17104
2019-04-29T12:34:31.235Z,1682
2019-04-29T12:35:51.842Z,4877
2019-04-29T12:37:02.833Z,25520
2019-04-29T12:38:15.654Z,21608
2019-04-29T12:39:42.648Z,16512
2019-04-29T12:40:54.634Z,2245
2019-04-29T12:42:08.255Z,3292
2019-04-29T12:43:23.180Z,6376
2019-04-29T12:44:44.350Z,15720
2019-04-29T12:45:56.783Z,2079
2019-04-29T12:47:09.653Z,4353
2019-04-29T12:48:26.569Z,6816
2019-04-29T12:49:42.342Z,0
2019-04-29T12:50:42.402Z,103
2019-04-29T12:51:56.179Z,107
2019-04-29T12:53:09.266Z,100
2019-04-29T12:54:22.813Z,97
2019-04-29T12:55:44.839Z,101
2019-04-29T12:57:01.560Z,103
2019-04-29T12:58:19.102Z,106
2019-04-29T12:59:35.354Z,97
2019-04-29T13:00:56.359Z,108
2019-04-29T13:02:05.321Z,103
2019-04-29T13:03:18.385Z,105
2019-04-29T13:04:32.333Z,107
2019-04-29T13:05:57.409Z,104
2019-04-29T13:07:01.334Z,104
2019-04-29T13:08:14.343Z,106
2019-04-29T13:09:27.225Z,99
2019-04-29T13:10:44.312Z,102
2019-04-29T13:12:17.614Z,104
2019-04-29T13:13:20.005Z,100
2019-04-29T13:14:39.053Z,106
2019-04-29T13:15:54.454Z,95
2019-04-29T13:17:14.546Z,105
2019-04-29T13:18:27.165Z,126
2019-04-29T13:19:40.106Z,135
2019-04-29T13:21:09.431Z,134
2019-04-29T13:22:17.141Z,172
2019-04-29T13:23:36.114Z,132
2019-04-29T13:24:49.055Z,60
2019-04-29T13:26:08.053Z,122
2019-04-29T13:27:25.540Z,127
2019-04-29T13:28:58.842Z,124
2019-04-29T13:29:57.787Z,122
2019-04-29T13:31:10.666Z,109
2019-04-29T13:32:29.604Z,119
2019-04-29T13:33:40.421Z,119
2019-04-29T13:34:53.461Z,119
2019-04-29T13:36:06.340Z,118
2019-04-29T13:37:22.207Z,118
2019-04-29T13:38:35.036Z,119
2019-04-29T13:39:48.068Z,116
